Time;durP1;ratioP1;P1;durP2;ratioP2;P2;SDS_P1;SDS_P2;PMS_P1;PMS_P2;Temp;Humidity;BMP_temperature;BMP_pressure;BME280_temperature;BME280_humidity;BME280_pressure;Samples;Min_cycle;Max_cycle;Signal;HPM_P1;HPM_P2
2023/10/25 00:02:04;;;;;;;18.15;4.78;;;;;;;19.03;50.58;98329.00;5048560;28;20033;-76
2023/10/25 00:04:29;;;;;;;15.88;5.18;;;;;;;19.04;50.63;98319.25;5017423;28;20498;-75
2023/10/25 00:06:55;;;;;;;20.75;4.97;;;;;;;18.97;51.05;98311.22;4999143;28;20041;-76
2023/10/25 00:09:20;;;;;;;22.15;6.00;;;;;;;18.95;51.18;98321.16;4998563;28;20064;-81
2023/10/25 00:11:46;;;;;;;15.40;4.97;;;;;;;18.94;51.01;98320.34;5016165;28;20044;-80
2023/10/25 00:14:11;;;;;;;16.75;6.70;;;;;;;18.90;51.44;98328.84;4999507;28;20113;-79
2023/10/25 00:16:37;;;;;;;20.55;5.60;;;;;;;18.86;51.29;98336.28;4999456;28;20084;-79
2023/10/25 00:19:03;;;;;;;14.98;5.13;;;;;;;18.88;51.23;98336.09;4999826;28;20385;-79
2023/10/25 00:21:28;;;;;;;18.33;5.60;;;;;;;18.83;51.38;98327.88;5015378;28;20025;-79
2023/10/25 00:23:53;;;;;;;18.98;5.40;;;;;;;18.77;51.60;98332.88;5016060;28;20028;-79
2023/10/25 00:26:19;;;;;;;13.27;5.40;;;;;;;18.80;51.71;98329.03;5015160;28;20033;-79
2023/10/25 00:28:44;;;;;;;23.25;5.72;;;;;;;18.77;51.99;98330.22;4999053;28;20450;-79
2023/10/25 00:31:11;;;;;;;15.43;5.40;;;;;;;18.76;52.08;98325.13;4999083;28;20041;-81
2023/10/25 00:33:36;;;;;;;18.05;5.35;;;;;;;18.73;51.90;98317.53;4999477;28;20080;-79
2023/10/25 00:36:02;;;;;;;18.40;5.93;;;;;;;18.68;52.11;98315.44;4998797;28;20483;-80
2023/10/25 00:38:27;;;;;;;19.88;5.50;;;;;;;18.60;52.40;98302.31;4998527;28;20091;-80
2023/10/25 00:40:53;;;;;;;25.20;7.45;;;;;;;18.48;52.76;98293.97;4999000;28;20475;-80
2023/10/25 00:43:20;;;;;;;19.50;5.90;;;;;;;18.45;52.97;98302.25;4998094;28;20044;-80
2023/10/25 00:46:12;;;;;;;19.83;5.78;;;;;;;18.47;53.04;98307.34;4998546;28;20029;-81
2023/10/25 00:48:44;;;;;;;13.95;6.07;;;;;;;18.42;53.15;98292.03;5014858;28;20079;-80
2023/10/25 00:51:10;;;;;;;15.98;6.32;;;;;;;18.44;52.97;98293.50;4998656;28;20025;-79
2023/10/25 00:53:37;;;;;;;21.80;6.07;;;;;;;18.48;52.69;98299.25;4998565;28;20068;-80
2023/10/25 00:56:04;;;;;;;19.50;6.47;;;;;;;18.46;52.70;98293.34;4982762;28;20048;-80
2023/10/25 00:58:29;;;;;;;16.75;6.32;;;;;;;18.42;52.89;98295.53;4998767;28;20033;-80
2023/10/25 01:00:55;;;;;;;18.10;6.38;;;;;;;18.40;52.94;98288.75;5014746;28;20036;-80
2023/10/25 01:03:21;;;;;;;16.20;6.45;;;;;;;18.44;52.92;98298.00;4998664;28;20503;-79
2023/10/25 01:05:46;;;;;;;15.23;6.28;;;;;;;18.46;52.89;98295.16;4982126;28;20037;-81
2023/10/25 01:08:12;;;;;;;13.65;5.95;;;;;;;18.42;52.93;98286.75;4982337;28;20088;-79
2023/10/25 01:10:38;;;;;;;16.67;6.35;;;;;;;18.48;52.88;98283.41;5016371;28;20469;-81
2023/10/25 01:13:04;;;;;;;11.90;5.85;;;;;;;18.47;53.12;98292.34;4999622;28;20053;-79
2023/10/25 01:15:29;;;;;;;17.05;6.45;;;;;;;18.39;53.62;98295.03;5032196;28;20033;-79
2023/10/25 01:17:55;;;;;;;21.42;6.10;;;;;;;18.36;53.71;98309.44;5031617;28;20041;-80
2023/10/25 01:20:20;;;;;;;20.77;5.75;;;;;;;18.37;53.55;98305.78;5031384;28;20029;-79
2023/10/25 01:22:47;;;;;;;22.13;6.60;;;;;;;18.37;53.61;98297.84;5030831;28;20473;-79
2023/10/25 01:25:13;;;;;;;18.92;6.65;;;;;;;18.36;53.47;98298.88;4997120;28;20029;-79
2023/10/25 01:27:38;;;;;;;23.08;6.85;;;;;;;18.34;53.63;98302.69;5013240;28;20045;-80
2023/10/25 01:30:04;;;;;;;25.42;6.75;;;;;;;18.29;53.62;98291.81;4997224;28;20105;-79
2023/10/25 01:32:29;;;;;;;15.57;6.20;;;;;;;18.31;53.59;98309.16;4996988;28;20030;-80
2023/10/25 01:34:55;;;;;;;24.52;6.60;;;;;;;18.33;53.52;98306.31;4997420;28;20041;-80
2023/10/25 01:37:20;;;;;;;14.45;6.60;;;;;;;18.27;53.39;98295.47;5013473;28;20422;-80
2023/10/25 01:39:46;;;;;;;18.70;6.80;;;;;;;18.28;53.39;98288.38;4997134;28;20095;-80
2023/10/25 01:42:11;;;;;;;17.92;6.50;;;;;;;18.31;53.23;98293.31;5013053;28;20053;-80
2023/10/25 01:44:37;;;;;;;21.10;6.68;;;;;;;18.33;53.44;98293.09;5013451;28;20041;-79
2023/10/25 01:47:03;;;;;;;19.05;6.78;;;;;;;18.33;53.38;98278.09;5013249;28;20091;-79
2023/10/25 01:49:28;;;;;;;20.02;6.63;;;;;;;18.37;53.34;98266.16;4981035;28;20053;-79
2023/10/25 01:51:54;;;;;;;20.30;7.38;;;;;;;18.40;53.61;98254.41;4996190;28;20093;-81
2023/10/25 01:54:19;;;;;;;24.20;6.93;;;;;;;18.40;53.70;98243.84;4997338;28;20032;-79
2023/10/25 01:56:45;;;;;;;18.63;6.78;;;;;;;18.34;53.94;98252.47;5034362;28;20029;-79
2023/10/25 01:59:10;;;;;;;22.50;7.07;;;;;;;18.29;53.90;98252.19;4984098;28;20030;-79
2023/10/25 02:01:36;;;;;;;17.30;6.45;;;;;;;18.26;54.22;98248.06;5016879;28;20075;-79
2023/10/25 02:04:01;;;;;;;20.65;6.43;;;;;;;18.22;54.06;98250.25;5001680;28;20075;-79
2023/10/25 02:06:27;;;;;;;19.48;7.18;;;;;;;18.18;54.29;98256.91;5001637;28;20033;-79
2023/10/25 02:08:52;;;;;;;21.75;7.30;;;;;;;18.18;54.20;98251.59;5001351;28;20049;-79
2023/10/25 02:11:20;;;;;;;17.55;6.60;;;;;;;18.21;54.00;98258.38;5001329;28;20049;-80
2023/10/25 02:13:45;;;;;;;17.42;7.28;;;;;;;18.20;53.89;98252.28;5001567;28;20037;-80
2023/10/25 02:16:15;;;;;;;29.63;7.38;;;;;;;18.15;53.85;98240.59;5017386;28;20033;-80
2023/10/25 02:18:40;;;;;;;22.00;8.05;;;;;;;18.20;53.84;98244.34;5001814;28;20026;-80
2023/10/25 02:21:06;;;;;;;29.50;7.40;;;;;;;18.20;53.90;98248.78;5001035;28;20041;-80
2023/10/25 02:23:31;;;;;;;16.70;7.07;;;;;;;18.15;53.94;98256.44;5017239;28;20353;-80
2023/10/25 02:25:57;;;;;;;23.20;7.57;;;;;;;18.06;54.22;98253.88;5017355;28;20071;-80
2023/10/25 02:28:22;;;;;;;22.77;8.98;;;;;;;18.01;54.19;98236.88;5035152;28;20029;-81
2023/10/25 02:30:48;;;;;;;20.00;8.10;;;;;;;18.01;54.52;98253.56;5000598;28;20041;-81
2023/10/25 02:33:13;;;;;;;19.48;7.75;;;;;;;17.99;54.52;98258.19;5017593;28;20468;-80
2023/10/25 02:35:39;;;;;;;20.88;8.30;;;;;;;18.01;54.31;98258.84;4984780;28;20075;-80
2023/10/25 02:38:05;;;;;;;15.82;7.55;;;;;;;18.02;54.40;98249.91;5017240;28;20026;-80
2023/10/25 02:40:30;;;;;;;23.02;8.40;;;;;;;18.00;54.14;98246.63;5027657;28;20480;-81
2023/10/25 02:42:56;;;;;;;22.90;7.70;;;;;;;17.99;54.63;98257.38;5054611;28;20028;-80
2023/10/25 02:45:21;;;;;;;21.42;8.10;;;;;;;17.99;54.67;98249.47;5035730;28;20032;-80
2023/10/25 02:47:47;;;;;;;21.50;8.52;;;;;;;17.96;54.81;98241.88;5036994;28;20491;-80
2023/10/25 02:50:12;;;;;;;24.90;9.63;;;;;;;17.89;54.94;98247.06;5036485;28;20036;-81
2023/10/25 02:52:38;;;;;;;22.83;8.35;;;;;;;17.86;54.87;98253.47;5029370;28;20040;-80
2023/10/25 02:55:04;;;;;;;28.75;8.70;;;;;;;17.81;54.87;98239.97;5036045;28;20041;-80
2023/10/25 02:57:29;;;;;;;22.83;8.93;;;;;;;17.80;55.13;98240.97;5036373;28;20037;-80
2023/10/25 02:59:55;;;;;;;21.20;8.63;;;;;;;17.83;55.50;98240.63;5016191;28;20044;-80
2023/10/25 03:02:20;;;;;;;23.50;7.95;;;;;;;17.79;55.33;98227.94;5016231;28;20076;-80
2023/10/25 03:04:46;;;;;;;17.92;8.40;;;;;;;17.78;55.51;98242.16;5017178;28;20095;-80
2023/10/25 03:07:11;;;;;;;20.52;8.05;;;;;;;17.76;55.50;98242.34;5015814;28;20033;-80
2023/10/25 03:09:36;;;;;;;20.17;7.93;;;;;;;17.75;55.62;98245.16;5016961;28;20067;-80
2023/10/25 03:12:02;;;;;;;29.08;8.88;;;;;;;17.72;55.63;98238.38;5016613;28;20123;-80
2023/10/25 03:14:28;;;;;;;23.02;8.93;;;;;;;17.71;55.50;98255.22;5016226;28;20045;-80
2023/10/25 03:16:53;;;;;;;25.35;9.65;;;;;;;17.60;55.45;98269.66;5015889;28;20050;-80
2023/10/25 03:19:19;;;;;;;23.77;9.30;;;;;;;17.63;55.63;98271.94;5017044;28;20388;-80
2023/10/25 03:21:44;;;;;;;24.83;9.25;;;;;;;17.67;55.45;98275.06;5032349;28;20030;-80
2023/10/25 03:24:10;;;;;;;23.95;8.88;;;;;;;17.65;55.42;98272.59;4999944;28;20069;-80
2023/10/25 03:26:35;;;;;;;20.88;9.10;;;;;;;17.64;55.15;98267.47;5015556;28;20075;-80
2023/10/25 03:29:01;;;;;;;18.60;8.77;;;;;;;17.64;55.28;98270.13;5019341;28;20034;-80
2023/10/25 03:31:26;;;;;;;25.42;9.55;;;;;;;17.58;55.40;98263.69;5035732;28;20029;-80
2023/10/25 03:33:51;;;;;;;20.63;9.50;;;;;;;17.47;55.78;98254.38;5017706;28;20103;-81
2023/10/25 03:36:17;;;;;;;26.10;9.90;;;;;;;17.44;55.76;98245.97;5016345;28;20041;-80
2023/10/25 03:38:42;;;;;;;19.25;8.95;;;;;;;17.41;55.50;98233.97;5031873;28;20038;-80
2023/10/25 03:41:08;;;;;;;24.63;9.68;;;;;;;17.32;55.85;98233.16;5015700;28;20087;-80
2023/10/25 03:43:34;;;;;;;17.52;8.18;;;;;;;17.39;55.64;98221.94;5016065;28;20108;-82
2023/10/25 03:46:07;;;;;;;22.23;10.05;;;;;;;17.43;55.54;98220.59;5006926;28;20417;-80
2023/10/25 03:48:33;;;;;;;24.42;9.20;;;;;;;17.40;55.65;98213.03;5019608;28;20024;-81
2023/10/25 03:51:01;;;;;;;20.15;9.02;;;;;;;17.40;55.76;98216.47;5015328;28;20020;-80
2023/10/25 03:53:26;;;;;;;24.30;9.60;;;;;;;17.34;55.91;98211.91;5019001;28;20040;-80
2023/10/25 03:55:55;;;;;;;21.05;9.50;;;;;;;17.38;55.37;98218.47;5035387;28;20033;-81
2023/10/25 03:58:21;;;;;;;22.58;10.25;;;;;;;17.40;55.94;98224.41;5018563;28;20463;-80
2023/10/25 04:00:47;;;;;;;24.55;10.00;;;;;;;17.39;55.70;98219.28;5034889;28;20028;-79
2023/10/25 04:03:13;;;;;;;24.30;9.85;;;;;;;17.40;55.64;98218.31;5018138;28;20094;-81
2023/10/25 04:05:42;;;;;;;14.43;6.88;;;;;;;17.49;58.89;98228.63;5017147;28;20020;-76
2023/10/25 04:08:08;;;;;;;23.48;7.03;;;;;;;17.74;57.73;98233.75;5004971;28;20559;-76
2023/10/25 04:10:34;;;;;;;16.88;8.25;;;;;;;17.83;57.29;98221.31;5038834;28;20468;-75
2023/10/25 04:12:59;;;;;;;22.95;8.70;;;;;;;17.92;56.43;98222.94;5035147;28;20044;-82
2023/10/25 04:15:25;;;;;;;17.42;8.73;;;;;;;18.00;56.20;98214.94;5034808;28;20082;-80
2023/10/25 04:17:50;;;;;;;22.35;8.73;;;;;;;18.04;55.99;98218.06;5034075;28;20052;-80
2023/10/25 04:20:16;;;;;;;24.83;8.85;;;;;;;18.11;55.88;98215.53;5018372;28;20025;-82
2023/10/25 04:22:41;;;;;;;22.67;8.65;;;;;;;18.17;55.80;98215.66;5018424;28;20033;-81
2023/10/25 04:25:08;;;;;;;24.08;8.48;;;;;;;18.23;56.65;98212.28;5052878;28;20028;-81
2023/10/25 04:27:33;;;;;;;24.35;10.00;;;;;;;18.26;55.81;98206.66;5018194;28;20404;-78
2023/10/25 04:29:59;;;;;;;26.25;9.10;;;;;;;18.24;55.47;98198.06;5001756;28;20029;-79
2023/10/25 04:32:24;;;;;;;17.85;10.10;;;;;;;18.24;55.34;98205.19;5018108;28;20029;-87
2023/10/25 04:34:50;;;;;;;27.77;9.75;;;;;;;18.22;55.18;98204.53;5034754;28;20063;-86
2023/10/25 04:37:15;;;;;;;24.23;10.25;;;;;;;18.17;54.79;98201.59;5000874;28;20051;-78
2023/10/25 04:39:41;;;;;;;25.60;10.68;;;;;;;18.12;54.66;98209.25;5017771;28;20060;-79
2023/10/25 04:42:06;;;;;;;25.63;10.57;;;;;;;18.12;54.57;98206.59;5001714;28;20098;-77
2023/10/25 04:44:32;;;;;;;22.25;7.30;;;;;;;18.15;59.05;98214.97;5001780;28;20055;-79
2023/10/25 04:46:58;;;;;;;23.83;9.90;;;;;;;18.26;56.65;98214.56;5001892;28;20032;-76
2023/10/25 04:49:28;;;;;;;26.10;9.05;;;;;;;18.22;56.16;98204.53;5017797;28;20040;-79
2023/10/25 04:51:54;;;;;;;19.52;9.75;;;;;;;18.19;55.73;98191.69;5019515;28;20029;-79
2023/10/25 04:54:19;;;;;;;21.38;9.73;;;;;;;18.18;55.09;98192.69;5009164;28;20112;-77
2023/10/25 04:56:45;;;;;;;18.92;9.55;;;;;;;18.14;54.81;98184.31;5030577;28;20075;-81
2023/10/25 04:59:10;;;;;;;24.63;10.13;;;;;;;18.07;54.74;98186.84;5035700;28;20036;-80
2023/10/25 05:01:35;;;;;;;22.75;10.45;;;;;;;18.11;54.72;98202.34;5005293;28;20040;-82
2023/10/25 05:04:01;;;;;;;27.02;10.43;;;;;;;18.06;54.52;98197.59;5036796;28;20110;-79
2023/10/25 05:06:27;;;;;;;24.63;10.25;;;;;;;18.03;54.67;98195.31;5019343;28;20032;-81
2023/10/25 05:08:53;;;;;;;22.58;9.68;;;;;;;18.05;54.42;98199.38;5018102;28;20365;-82
2023/10/25 05:11:18;;;;;;;26.33;9.85;;;;;;;18.07;54.47;98220.34;5017761;28;20123;-80
2023/10/25 05:13:44;;;;;;;23.48;10.10;;;;;;;18.07;54.22;98221.19;5017764;28;20033;-80
2023/10/25 05:16:10;;;;;;;27.38;9.90;;;;;;;18.11;54.26;98228.75;5017696;28;20521;-79
2023/10/25 05:18:36;;;;;;;31.60;11.02;;;;;;;18.07;54.11;98212.41;5018168;28;20488;-81
2023/10/25 05:21:03;;;;;;;26.00;9.23;;;;;;;18.15;54.08;98227.38;5017862;28;20024;-82
2023/10/25 05:23:30;;;;;;;30.75;11.35;;;;;;;18.16;54.05;98226.38;5018113;28;20511;-82
2023/10/25 05:25:59;;;;;;;24.40;10.25;;;;;;;18.18;54.05;98227.84;5001337;28;20037;-80
2023/10/25 05:28:25;;;;;;;17.88;10.32;;;;;;;18.17;53.98;98220.09;5018462;28;20045;-81
2023/10/25 05:30:51;;;;;;;30.83;11.40;;;;;;;18.23;54.10;98216.72;5021367;28;20056;-81
2023/10/25 05:33:18;;;;;;;32.17;11.65;;;;;;;18.25;54.09;98220.03;5038141;28;20098;-80
2023/10/25 05:35:43;;;;;;;23.83;10.80;;;;;;;18.26;53.91;98217.22;5021408;28;20091;-81
2023/10/25 05:38:09;;;;;;;36.17;11.10;;;;;;;18.26;54.13;98217.22;5021620;28;20040;-81
2023/10/25 05:40:35;;;;;;;26.50;10.63;;;;;;;18.31;53.88;98213.19;5005160;28;20029;-82
2023/10/25 05:43:00;;;;;;;44.45;11.82;;;;;;;18.31;54.13;98218.50;5055754;28;20036;-80
2023/10/25 05:45:26;;;;;;;25.05;11.38;;;;;;;18.36;53.87;98229.31;5020958;28;20072;-81
2023/10/25 05:47:51;;;;;;;28.10;11.57;;;;;;;18.32;53.83;98214.84;5037307;28;20045;-81
2023/10/25 05:50:17;;;;;;;26.40;11.82;;;;;;;18.37;53.76;98217.78;5022731;28;20037;-83
2023/10/25 05:52:44;;;;;;;27.33;11.75;;;;;;;18.40;54.04;98215.59;5005214;28;20052;-83
2023/10/25 05:55:14;;;;;;;27.55;11.57;;;;;;;18.38;53.93;98203.56;5005126;28;20031;-81
2023/10/25 05:57:40;;;;;;;41.25;11.55;;;;;;;18.44;53.84;98216.88;5021454;28;20048;-81
2023/10/25 06:00:06;;;;;;;29.67;11.75;;;;;;;18.48;53.79;98233.19;5023455;28;20483;-81
2023/10/25 06:02:32;;;;;;;27.52;11.43;;;;;;;18.49;53.67;98234.84;5004892;28;20122;-80
2023/10/25 06:04:59;;;;;;;27.42;10.90;;;;;;;18.52;53.80;98234.47;5021172;28;20033;-82
2023/10/25 06:07:25;;;;;;;26.17;11.48;;;;;;;18.51;53.71;98224.09;5037925;28;20403;-82
2023/10/25 06:09:50;;;;;;;27.77;10.90;;;;;;;18.58;53.45;98225.00;5021097;28;20112;-80
2023/10/25 06:12:16;;;;;;;28.88;10.88;;;;;;;18.59;53.36;98224.00;5020353;28;20500;-81
2023/10/25 06:14:42;;;;;;;25.52;10.70;;;;;;;18.61;53.03;98225.47;5020812;28;20033;-82
2023/10/25 06:17:07;;;;;;;23.35;9.63;;;;;;;18.63;52.83;98220.00;5020310;28;20068;-80
2023/10/25 06:19:33;;;;;;;21.63;9.90;;;;;;;18.62;52.52;98208.59;5003849;28;20530;-82
2023/10/25 06:21:58;;;;;;;23.00;9.15;;;;;;;18.70;52.60;98215.63;5020346;28;20456;-76
2023/10/25 06:24:25;;;;;;;26.90;9.60;;;;;;;18.73;52.68;98220.53;5035873;28;20041;-81
2023/10/25 06:26:51;;;;;;;33.47;9.07;;;;;;;18.76;52.13;98230.75;5035865;28;20060;-78
2023/10/25 06:29:16;;;;;;;23.83;8.15;;;;;;;18.73;52.02;98227.66;5036364;28;20056;-77
2023/10/25 06:31:44;;;;;;;33.92;8.45;;;;;;;18.87;53.99;98226.88;5003012;28;20041;-79
2023/10/25 06:34:10;;;;;;;29.42;8.88;;;;;;;18.95;53.09;98240.00;5003192;28;20033;-74
2023/10/25 06:36:37;;;;;;;27.75;8.43;;;;;;;18.95;52.87;98239.19;5019083;28;20041;-76
2023/10/25 06:39:06;;;;;;;26.75;8.45;;;;;;;18.96;52.26;98222.28;5020278;28;20132;-75
2023/10/25 06:41:32;;;;;;;24.35;7.97;;;;;;;18.96;51.80;98212.56;5002248;28;20029;-75
2023/10/25 06:43:58;;;;;;;32.20;8.52;;;;;;;18.97;51.96;98205.44;5002628;28;20033;-74
2023/10/25 06:46:23;;;;;;;21.60;8.55;;;;;;;18.95;51.93;98199.50;5019060;28;20110;-75
2023/10/25 06:48:50;;;;;;;25.95;8.38;;;;;;;18.98;52.28;98223.75;5018850;28;20033;-75
2023/10/25 06:51:15;;;;;;;22.13;8.25;;;;;;;18.97;52.09;98214.19;5035612;28;20087;-75
2023/10/25 06:53:41;;;;;;;23.38;8.52;;;;;;;19.02;52.12;98221.56;5019053;28;20017;-73
2023/10/25 06:56:08;;;;;;;24.45;8.65;;;;;;;19.02;52.13;98220.75;5035963;28;20132;-76
2023/10/25 06:58:34;;;;;;;25.92;8.65;;;;;;;19.03;51.87;98232.97;5001753;28;20211;-77
2023/10/25 07:00:59;;;;;;;45.42;10.05;;;;;;;19.05;51.97;98236.25;5019155;28;20021;-75
2023/10/25 07:03:35;;;;;;;29.65;10.73;;;;;;;19.05;51.98;98236.25;5018792;28;20037;-76
2023/10/25 07:06:05;;;;;;;31.27;11.00;;;;;;;19.05;51.97;98231.78;5002536;28;20037;-75
2023/10/25 07:08:31;;;;;;;33.22;11.82;;;;;;;19.06;52.05;98219.38;5003508;28;20025;-75
2023/10/25 07:10:57;;;;;;;32.40;12.00;;;;;;;19.09;51.73;98216.38;5035417;28;20102;-76
2023/10/25 07:13:32;;;;;;;24.65;11.85;;;;;;;19.09;51.64;98213.72;5019160;28;20029;-75
2023/10/25 07:15:58;;;;;;;31.40;12.68;;;;;;;19.10;51.58;98228.56;5004106;28;20029;-78
2023/10/25 07:18:24;;;;;;;32.72;13.30;;;;;;;19.13;51.55;98220.28;5002713;28;20032;-75
2023/10/25 07:20:50;;;;;;;31.13;13.52;;;;;;;19.14;51.47;98232.50;5018430;28;20029;-75
2023/10/25 07:23:16;;;;;;;34.97;13.57;;;;;;;19.17;51.58;98242.72;5018866;28;20028;-76
2023/10/25 07:25:43;;;;;;;27.98;12.30;;;;;;;19.15;51.83;98239.44;5018117;28;20033;-76
2023/10/25 07:28:08;;;;;;;27.42;13.15;;;;;;;19.14;51.55;98243.91;5002141;28;20052;-76
2023/10/25 07:30:34;;;;;;;29.75;12.70;;;;;;;19.15;51.38;98232.31;5017934;28;20112;-75
2023/10/25 07:33:00;;;;;;;28.10;12.30;;;;;;;19.16;51.43;98214.63;5018738;28;20479;-76
2023/10/25 07:35:25;;;;;;;31.60;12.60;;;;;;;19.21;51.54;98220.16;5018760;28;20395;-82
2023/10/25 07:37:51;;;;;;;32.50;12.57;;;;;;;19.25;51.45;98224.09;5034811;28;20075;-77
2023/10/25 07:40:16;;;;;;;39.28;13.40;;;;;;;19.33;51.08;98217.88;5018464;28;20067;-76
2023/10/25 07:42:42;;;;;;;32.28;12.57;;;;;;;19.37;50.89;98218.31;5018377;28;20111;-77
2023/10/25 07:45:08;;;;;;;24.20;8.65;;;;;;;19.60;56.65;98215.53;5018586;28;20039;-74
2023/10/25 07:47:33;;;;;;;26.55;10.95;;;;;;;19.66;53.38;98202.34;5052183;28;20541;-75
2023/10/25 07:49:59;;;;;;;24.42;8.45;;;;;;;20.11;56.14;98214.59;5018232;28;20036;-74
2023/10/25 07:52:27;;;;;;;23.67;8.57;;;;;;;20.37;55.37;98224.59;5034653;28;20079;-74
2023/10/25 07:54:52;;;;;;;;;;;;;;;20.77;54.07;98214.28;5002770;28;20032;-77
2023/10/25 07:57:19;;;;;;;28.85;8.88;;;;;;;21.09;53.62;98204.84;5034607;28;19912;-78
2023/10/25 07:59:45;;;;;;;26.80;9.27;;;;;;;21.40;52.79;98200.06;5052259;28;20049;-73
2023/10/25 08:02:11;;;;;;;25.08;9.50;;;;;;;21.58;52.83;98210.94;5017248;28;20068;-73
2023/10/25 08:04:37;;;;;;;44.10;14.82;;;;;;;21.58;52.07;98228.72;5017991;28;20168;-74
2023/10/25 08:07:02;;;;;;;33.05;13.68;;;;;;;21.58;52.15;98242.00;5034953;28;20029;-74
2023/10/25 08:09:28;;;;;;;33.47;13.13;;;;;;;21.57;51.30;98230.56;5018109;28;20472;-73
2023/10/25 08:11:53;;;;;;;33.33;18.40;;;;;;;21.53;51.24;98229.34;5034322;28;20536;-76
2023/10/25 08:14:19;;;;;;;40.42;16.50;;;;;;;21.59;51.21;98233.03;5034320;28;20037;-75
2023/10/25 08:16:45;;;;;;;44.97;19.80;;;;;;;21.62;50.29;98233.44;5034456;28;20049;-76
2023/10/25 08:19:10;;;;;;;31.20;14.88;;;;;;;21.66;50.37;98223.22;5018147;28;20534;-77
2023/10/25 08:21:36;;;;;;;38.47;15.85;;;;;;;21.84;49.36;98218.16;5017585;28;20040;-79
2023/10/25 08:24:05;;;;;;;36.05;18.27;;;;;;;22.02;48.76;98216.75;5034267;28;20064;-77
2023/10/25 08:26:34;;;;;;;45.38;18.73;;;;;;;22.17;48.02;98224.50;5018436;28;20082;-78
2023/10/25 08:29:01;;;;;;;45.58;20.33;;;;;;;22.28;47.98;98225.75;5034689;28;20048;-78
2023/10/25 08:31:26;;;;;;;49.08;21.08;;;;;;;22.42;47.20;98224.75;5017334;28;20415;-77
2023/10/25 08:33:52;;;;;;;44.95;22.70;;;;;;;22.51;46.92;98209.41;5017639;28;20036;-78
2023/10/25 08:36:17;;;;;;;44.88;23.48;;;;;;;22.59;46.52;98212.66;5051926;28;20041;-77
2023/10/25 08:38:43;;;;;;;50.20;24.08;;;;;;;22.63;46.31;98213.06;5034245;28;20036;-79
2023/10/25 08:41:09;;;;;;;52.40;23.17;;;;;;;22.71;46.02;98217.34;5017445;28;20029;-78
2023/10/25 08:43:35;;;;;;;47.45;24.77;;;;;;;22.74;46.14;98196.47;5017320;28;20063;-77
2023/10/25 08:46:04;;;;;;;56.22;25.75;;;;;;;22.75;46.20;98208.72;5016949;28;20103;-72
2023/10/25 08:48:29;;;;;;;54.55;25.58;;;;;;;22.74;46.10;98203.63;5017971;28;20055;-83
2023/10/25 08:50:56;;;;;;;77.97;28.35;;;;;;;22.66;45.64;98210.00;5017666;28;20508;-79
2023/10/25 08:53:25;;;;;;;64.22;30.17;;;;;;;22.61;45.06;98209.78;5018390;28;20029;-81
2023/10/25 08:55:52;;;;;;;58.25;28.70;;;;;;;22.57;45.54;98214.72;5033456;28;20025;-81
2023/10/25 08:58:21;;;;;;;61.60;29.38;;;;;;;22.52;45.45;98203.88;5033831;28;20033;-79
2023/10/25 09:00:46;;;;;;;59.92;27.45;;;;;;;22.56;45.49;98201.63;5017829;28;20021;-83
2023/10/25 09:03:30;;;;;;;69.95;30.52;;;;;;;22.55;45.31;98198.16;5000918;28;20511;-78
2023/10/25 09:05:56;;;;;;;60.45;29.60;;;;;;;22.54;44.98;98212.47;5050275;28;20396;-78
2023/10/25 09:08:24;;;;;;;55.65;27.83;;;;;;;22.49;44.88;98198.16;5017547;28;20033;-79
2023/10/25 09:11:11;;;;;;;63.70;27.88;;;;;;;22.44;44.94;98201.44;5000972;28;20033;-80
2023/10/25 09:13:41;;;;;;;52.75;27.25;;;;;;;22.50;45.66;98203.28;5018402;28;20048;-79
2023/10/25 09:16:11;;;;;;;59.45;26.85;;;;;;;22.51;45.42;98194.25;5033324;28;20040;-78
2023/10/25 09:18:37;;;;;;;66.47;27.88;;;;;;;22.50;45.09;98205.09;5017272;28;20081;-78
2023/10/25 09:21:03;;;;;;;62.67;28.23;;;;;;;22.52;45.44;98219.03;5018891;28;20021;-89
2023/10/25 09:23:29;;;;;;;60.38;28.58;;;;;;;22.52;45.48;98209.19;5020265;28;20037;-85
2023/10/25 09:25:55;;;;;;;62.65;28.05;;;;;;;22.60;45.39;98202.84;5017872;28;20060;-83
2023/10/25 09:28:29;;;;;;;54.47;26.98;;;;;;;22.70;45.36;98207.72;5020280;28;20054;-85
2023/10/25 09:30:58;;;;;;;57.63;25.90;;;;;;;22.82;45.16;98199.91;5042294;28;20108;-84
2023/10/25 09:33:30;;;;;;;53.20;27.95;;;;;;;22.94;45.12;98199.06;5024880;28;20033;-84
2023/10/25 09:35:58;;;;;;;50.33;27.40;;;;;;;23.10;44.28;98195.16;5021638;28;20531;-83
2023/10/25 09:38:24;;;;;;;;;;;;;;;23.22;44.27;98197.94;5036145;28;20033;-85
2023/10/25 09:40:50;;;;;;;53.45;25.90;;;;;;;23.33;44.30;98190.34;5019364;28;19935;-83
2023/10/25 09:43:20;;;;;;;46.28;25.02;;;;;;;23.41;44.06;98180.25;5018123;28;20041;-87
2023/10/25 09:45:52;;;;;;;59.42;27.67;;;;;;;23.55;43.14;98173.00;5019441;28;20029;-85
2023/10/25 09:48:19;;;;;;;54.30;25.55;;;;;;;23.67;43.07;98168.63;5019791;28;20025;-85
2023/10/25 09:50:51;;;;;;;51.45;26.85;;;;;;;23.73;43.05;98176.78;5019626;28;20120;-85
2023/10/25 09:53:20;;;;;;;51.58;25.20;;;;;;;23.81;42.71;98169.31;5018028;28;20130;-84
2023/10/25 09:55:46;;;;;;;60.08;26.05;;;;;;;23.91;42.86;98165.38;5001839;28;20071;-81
2023/10/25 09:58:12;;;;;;;50.72;25.30;;;;;;;23.96;42.79;98179.72;5016649;28;20021;-79
2023/10/25 10:00:37;;;;;;;59.30;25.02;;;;;;;24.04;42.66;98162.63;5017053;28;20086;-80
2023/10/25 10:03:06;;;;;;;52.00;25.35;;;;;;;24.16;42.52;98155.56;5032999;28;20403;-80
2023/10/25 10:05:53;;;;;;;51.58;24.17;;;;;;;24.27;42.23;98151.31;5017462;28;20068;-77
2023/10/25 10:08:40;;;;;;;52.38;24.88;;;;;;;24.36;42.05;98144.69;5032816;28;20021;-77
2023/10/25 10:11:09;;;;;;;45.88;24.02;;;;;;;24.46;41.79;98146.03;5031977;28;20048;-80
2023/10/25 10:13:34;;;;;;;48.97;25.15;;;;;;;24.53;41.50;98149.44;5017264;28;20488;-77
2023/10/25 10:16:00;;;;;;;51.15;25.13;;;;;;;24.63;41.27;98151.63;5034680;28;20036;-79
2023/10/25 10:18:33;;;;;;;64.65;25.55;;;;;;;24.72;41.14;98139.63;5055162;28;20407;-78
2023/10/25 10:21:04;;;;;;;53.78;24.17;;;;;;;24.83;41.20;98132.72;5036572;28;20086;-77
2023/10/25 10:23:38;;;;;;;48.22;24.50;;;;;;;24.99;40.18;98133.97;5019938;28;20491;-77
2023/10/25 10:26:05;;;;;;;48.05;23.52;;;;;;;24.91;40.49;98127.88;5016776;28;20487;-79
2023/10/25 10:28:46;;;;;;;53.47;23.98;;;;;;;25.07;39.93;98130.97;5000492;28;20412;-77
2023/10/25 10:31:12;;;;;;;52.38;23.25;;;;;;;25.19;40.11;98123.84;5000764;28;20095;-78
2023/10/25 10:33:43;;;;;;;47.50;23.23;;;;;;;25.17;39.49;98109.06;5016956;28;20489;-78
2023/10/25 10:36:08;;;;;;;46.30;22.65;;;;;;;25.12;40.38;98107.06;5016415;28;20037;-79
2023/10/25 10:39:09;;;;;;;41.03;21.55;;;;;;;25.32;39.76;98109.50;5000344;28;20527;-78
2023/10/25 10:41:35;;;;;;;39.83;20.88;;;;;;;25.42;39.37;98104.41;5033993;28;20528;-82
2023/10/25 10:44:00;;;;;;;89.38;23.42;;;;;;;25.60;39.89;98102.69;5017037;28;20025;-75
2023/10/25 10:46:27;;;;;;;93.68;21.50;;;;;;;25.73;39.38;98088.31;5000405;28;20077;-83
2023/10/25 10:48:54;;;;;;;40.95;18.52;;;;;;;25.60;38.02;98086.66;5017304;28;20060;-79
2023/10/25 10:51:20;;;;;;;42.97;18.83;;;;;;;25.51;38.56;98093.38;5018987;28;20060;-76
2023/10/25 10:53:46;;;;;;;45.22;19.35;;;;;;;25.56;39.37;98096.19;5032525;28;20041;-79
2023/10/25 10:56:12;;;;;;;45.72;18.95;;;;;;;25.58;39.04;98084.22;5000561;28;20121;-78
2023/10/25 10:58:37;;;;;;;41.53;18.02;;;;;;;25.77;38.14;98081.47;5016175;28;20476;-79
2023/10/25 11:01:03;;;;;;;37.08;18.15;;;;;;;25.69;37.80;98073.78;5016875;28;20029;-77
2023/10/25 11:03:28;;;;;;;44.05;18.75;;;;;;;25.71;38.53;98071.69;5017530;28;20087;-74
2023/10/25 11:05:54;;;;;;;39.45;18.10;;;;;;;25.82;38.21;98061.03;5016179;28;20048;-75
2023/10/25 11:08:21;;;;;;;36.20;18.35;;;;;;;25.90;37.58;98067.03;5015927;28;20036;-75
2023/10/25 11:10:46;;;;;;;46.88;19.42;;;;;;;25.80;37.92;98065.75;5016684;28;20030;-79
2023/10/25 11:13:12;;;;;;;49.33;19.55;;;;;;;25.80;37.86;98065.75;5000072;28;20080;-81
2023/10/25 11:15:40;;;;;;;42.53;19.02;;;;;;;25.79;38.01;98066.81;5017817;28;20033;-81
2023/10/25 11:18:09;;;;;;;35.63;18.95;;;;;;;25.55;38.34;98057.97;5018225;28;20060;-80
2023/10/25 11:20:35;;;;;;;38.50;18.08;;;;;;;25.45;38.45;98053.19;5018144;28;20021;-83